Viking Sky — LAYU7 — position and weather

sailwx.info

Track history (hours):
 
Tides and Currents Weather Stations Pressure Air Temp Water Temp Dewpoint Dewpoint Depression Visibility Wind Speed Wind Dir Waves Ship Positions

Viking Sky

Last reported at 2020-Jan-21 20:03 UTC. Time now 2020-Jan-21 22:44 UTC.
Position N 20°40' W 086°54'.

Length 228 m; draft 6.7 m.

Type: Passenger vessel. MMSI: 259186000.

Date/timePositionNaut miles runAvg speedWind from/ knotsBaromVisibWave heightAir tempDewpointWater temp
2020-Jan-21 20:03N 20°40' W 086°54'12 1.7
2020-Jan-21 12:59N 20°29' W 086°59'7 4.6
2020-Jan-21 11:30N 20°24' W 087°04'  
2020-Jan-18 01:00N 25°25' W 080°02'1211.8
2020-Jan-18 00:00N 25°37' W 080°02'12 3.1
2020-Jan-17 19:57N 25°46' W 080°11'0 0.0
2020-Jan-17 18:27N 25°46' W 080°11'0 0.0
2020-Jan-17 17:27N 25°46' W 080°11'0 0.0
2020-Jan-17 16:27N 25°46' W 080°11'0 0.0
2020-Jan-17 14:57N 25°46' W 080°11'0 0.0
2020-Jan-17 11:27N 25°46' W 080°11'7 2.4
2020-Jan-17 08:31N 25°46' W 080°03'1812.2
2020-Jan-17 07:00N 25°29' W 079°55'485 9.4
2020-Jan-15 03:26N 20°38' W 086°56'9 9.8
2020-Jan-15 02:29N 20°29' W 086°59'0 0.0
2020-Jan-15 01:29N 20°29' W 086°59'0 0.0
2020-Jan-14 23:59N 20°29' W 086°59'0 0.0
2020-Jan-14 21:29N 20°29' W 086°59'0 0.0
2020-Jan-14 20:59N 20°29' W 086°59'0 0.0
2020-Jan-14 19:29N 20°29' W 086°59'0 0.0
2020-Jan-14 18:29N 20°29' W 086°59'0 0.0
2020-Jan-14 17:59N 20°29' W 086°59'0 0.0
2020-Jan-14 17:29N 20°29' W 086°59'0 0.0
2020-Jan-14 16:59N 20°29' W 086°59'0 0.0
2020-Jan-14 14:56N 20°29' W 086°59'0 0.0
2020-Jan-14 14:29N 20°29' W 086°59'0 0.0
2020-Jan-14 13:29N 20°29' W 086°59'  
Track history (hours):
 
Tides and Currents Weather Stations Pressure Air Temp Water Temp Dewpoint Dewpoint Depression Visibility Wind Speed Wind Dir Waves Ship Positions

Viking Sky

Last reported at 2020-Jan-21 20:03 UTC. Time now 2020-Jan-21 22:44 UTC.
Position N 20°40' W 086°54'.

Length 228 m; draft 6.7 m.

Type: Passenger vessel. MMSI: 259186000.

Date/timePositionNaut miles runAvg speedWind from/ knotsBaromVisibWave heightAir tempDewpointWater temp
2020-Jan-21 20:03N 20°40' W 086°54'12 1.7
2020-Jan-21 12:59N 20°29' W 086°59'7 4.6
2020-Jan-21 11:30N 20°24' W 087°04'  
2020-Jan-18 01:00N 25°25' W 080°02'1211.8
2020-Jan-18 00:00N 25°37' W 080°02'12 3.1
2020-Jan-17 19:57N 25°46' W 080°11'0 0.0
2020-Jan-17 18:27N 25°46' W 080°11'0 0.0
2020-Jan-17 17:27N 25°46' W 080°11'0 0.0
2020-Jan-17 16:27N 25°46' W 080°11'0 0.0
2020-Jan-17 14:57N 25°46' W 080°11'0 0.0
2020-Jan-17 11:27N 25°46' W 080°11'7 2.4
2020-Jan-17 08:31N 25°46' W 080°03'1812.2
2020-Jan-17 07:00N 25°29' W 079°55'485 9.4
2020-Jan-15 03:26N 20°38' W 086°56'9 9.8
2020-Jan-15 02:29N 20°29' W 086°59'0 0.0
2020-Jan-15 01:29N 20°29' W 086°59'0 0.0
2020-Jan-14 23:59N 20°29' W 086°59'0 0.0
2020-Jan-14 21:29N 20°29' W 086°59'0 0.0
2020-Jan-14 20:59N 20°29' W 086°59'0 0.0
2020-Jan-14 19:29N 20°29' W 086°59'0 0.0
2020-Jan-14 18:29N 20°29' W 086°59'0 0.0
2020-Jan-14 17:59N 20°29' W 086°59'0 0.0
2020-Jan-14 17:29N 20°29' W 086°59'0 0.0
2020-Jan-14 16:59N 20°29' W 086°59'0 0.0
2020-Jan-14 14:56N 20°29' W 086°59'0 0.0
2020-Jan-14 14:29N 20°29' W 086°59'0 0.0
2020-Jan-14 13:29N 20°29' W 086°59'  

Dump ship's entire track history